sensor_id;sensor_type;location;lat;lon;timestamp;temperature;humidity
2897;DHT22;1458;49.728;9.228;2023-01-15T00:01:30;10.00;99.90
2897;DHT22;1458;49.728;9.228;2023-01-15T00:03:59;10.10;99.90
2897;DHT22;1458;49.728;9.228;2023-01-15T00:06:29;10.10;99.90
2897;DHT22;1458;49.728;9.228;2023-01-15T00:08:57;10.10;99.90
2897;DHT22;1458;49.728;9.228;2023-01-15T00:11:25;10.10;99.90
2897;DHT22;1458;49.728;9.228;2023-01-15T00:13:52;10.10;99.90
2897;DHT22;1458;49.728;9.228;2023-01-15T00:16:21;10.10;99.90
2897;DHT22;1458;49.728;9.228;2023-01-15T00:18:51;10.20;99.90
2897;DHT22;1458;49.728;9.228;2023-01-15T00:21:19;10.20;99.90
2897;DHT22;1458;49.728;9.228;2023-01-15T00:23:48;10.20;99.90
2897;DHT22;1458;49.728;9.228;2023-01-15T00:26:33;10.10;99.90
2897;DHT22;1458;49.728;9.228;2023-01-15T00:29:19;10.20;99.90
2897;DHT22;1458;49.728;9.228;2023-01-15T00:31:52;10.20;99.90
2897;DHT22;1458;49.728;9.228;2023-01-15T00:34:23;10.20;99.90
2897;DHT22;1458;49.728;9.228;2023-01-15T00:36:51;10.30;99.90
2897;DHT22;1458;49.728;9.228;2023-01-15T00:39:18;10.20;99.90
2897;DHT22;1458;49.728;9.228;2023-01-15T00:41:46;10.10;99.90
2897;DHT22;1458;49.728;9.228;2023-01-15T00:44:14;10.10;99.90
2897;DHT22;1458;49.728;9.228;2023-01-15T00:46:42;10.20;99.90
2897;DHT22;1458;49.728;9.228;2023-01-15T00:49:09;10.30;99.90
2897;DHT22;1458;49.728;9.228;2023-01-15T00:51:38;10.30;99.90
2897;DHT22;1458;49.728;9.228;2023-01-15T00:54:05;10.20;99.90
2897;DHT22;1458;49.728;9.228;2023-01-15T00:56:33;10.30;99.90
2897;DHT22;1458;49.728;9.228;2023-01-15T00:59:01;10.30;99.90
2897;DHT22;1458;49.728;9.228;2023-01-15T01:01:30;10.40;99.90
2897;DHT22;1458;49.728;9.228;2023-01-15T01:03:57;10.40;99.90
2897;DHT22;1458;49.728;9.228;2023-01-15T01:06:25;10.50;99.90
2897;DHT22;1458;49.728;9.228;2023-01-15T01:08:54;10.40;99.90
2897;DHT22;1458;49.728;9.228;2023-01-15T01:11:23;10.40;99.90
2897;DHT22;1458;49.728;9.228;2023-01-15T01:13:53;10.60;99.90
2897;DHT22;1458;49.728;9.228;2023-01-15T01:16:24;10.50;99.90
2897;DHT22;1458;49.728;9.228;2023-01-15T01:18:55;10.50;99.90
2897;DHT22;1458;49.728;9.228;2023-01-15T01:21:23;10.50;99.90
2897;DHT22;1458;49.728;9.228;2023-01-15T01:23:51;10.40;99.90
2897;DHT22;1458;49.728;9.228;2023-01-15T01:26:21;10.40;99.90
2897;DHT22;1458;49.728;9.228;2023-01-15T01:28:49;10.50;99.90
2897;DHT22;1458;49.728;9.228;2023-01-15T01:31:17;10.40;99.90
2897;DHT22;1458;49.728;9.228;2023-01-15T01:33:47;10.40;99.90
2897;DHT22;1458;49.728;9.228;2023-01-15T01:36:15;10.30;99.90
2897;DHT22;1458;49.728;9.228;2023-01-15T01:38:45;10.30;99.90
2897;DHT22;1458;49.728;9.228;2023-01-15T01:41:15;10.30;99.90
2897;DHT22;1458;49.728;9.228;2023-01-15T01:43:56;10.30;99.90
2897;DHT22;1458;49.728;9.228;2023-01-15T01:46:26;10.30;99.90
2897;DHT22;1458;49.728;9.228;2023-01-15T01:48:58;10.30;99.90
2897;DHT22;1458;49.728;9.228;2023-01-15T01:51:31;10.20;99.90
2897;DHT22;1458;49.728;9.228;2023-01-15T01:54:02;10.40;99.90
2897;DHT22;1458;49.728;9.228;2023-01-15T01:56:33;10.30;99.90
2897;DHT22;1458;49.728;9.228;2023-01-15T01:59:02;10.30;99.90
2897;DHT22;1458;49.728;9.228;2023-01-15T02:01:30;10.30;99.90
2897;DHT22;1458;49.728;9.228;2023-01-15T02:03:58;10.30;99.90
2897;DHT22;1458;49.728;9.228;2023-01-15T02:06:26;10.30;99.90
2897;DHT22;1458;49.728;9.228;2023-01-15T02:08:54;10.30;99.90
2897;DHT22;1458;49.728;9.228;2023-01-15T02:11:22;10.30;99.90
2897;DHT22;1458;49.728;9.228;2023-01-15T02:13:56;10.30;99.90
2897;DHT22;1458;49.728;9.228;2023-01-15T02:16:31;10.30;99.90
2897;DHT22;1458;49.728;9.228;2023-01-15T02:19:09;10.30;99.90
2897;DHT22;1458;49.728;9.228;2023-01-15T02:21:50;10.20;99.90
2897;DHT22;1458;49.728;9.228;2023-01-15T02:24:27;10.20;99.90
2897;DHT22;1458;49.728;9.228;2023-01-15T02:27:09;10.20;99.90
2897;DHT22;1458;49.728;9.228;2023-01-15T02:29:44;10.20;99.90
2897;DHT22;1458;49.728;9.228;2023-01-15T02:32:27;10.20;99.90
2897;DHT22;1458;49.728;9.228;2023-01-15T02:35:03;10.20;99.90
2897;DHT22;1458;49.728;9.228;2023-01-15T02:37:36;10.20;99.90
2897;DHT22;1458;49.728;9.228;2023-01-15T02:40:08;10.20;99.90
2897;DHT22;1458;49.728;9.228;2023-01-15T02:42:38;10.20;99.90
2897;DHT22;1458;49.728;9.228;2023-01-15T02:45:08;10.20;99.90
2897;DHT22;1458;49.728;9.228;2023-01-15T02:47:38;10.20;99.90
2897;DHT22;1458;49.728;9.228;2023-01-15T02:50:11;10.10;99.90
2897;DHT22;1458;49.728;9.228;2023-01-15T02:52:44;10.10;99.90
2897;DHT22;1458;49.728;9.228;2023-01-15T02:55:19;10.10;99.90
2897;DHT22;1458;49.728;9.228;2023-01-15T02:57:54;10.20;99.90
2897;DHT22;1458;49.728;9.228;2023-01-15T03:00:25;10.20;99.90
2897;DHT22;1458;49.728;9.228;2023-01-15T03:03:00;10.30;99.90
2897;DHT22;1458;49.728;9.228;2023-01-15T03:05:32;10.30;99.90
2897;DHT22;1458;49.728;9.228;2023-01-15T03:08:06;10.30;99.90
2897;DHT22;1458;49.728;9.228;2023-01-15T03:10:41;10.30;99.90
2897;DHT22;1458;49.728;9.228;2023-01-15T03:13:16;10.40;99.90
2897;DHT22;1458;49.728;9.228;2023-01-15T03:15:57;10.40;99.90
2897;DHT22;1458;49.728;9.228;2023-01-15T03:18:49;10.40;99.90
2897;DHT22;1458;49.728;9.228;2023-01-15T03:21:25;10.40;99.90
2897;DHT22;1458;49.728;9.228;2023-01-15T03:24:00;10.40;99.90
2897;DHT22;1458;49.728;9.228;2023-01-15T03:26:28;10.40;99.90
2897;DHT22;1458;49.728;9.228;2023-01-15T03:28:59;10.40;99.90
2897;DHT22;1458;49.728;9.228;2023-01-15T03:31:30;10.20;99.90
2897;DHT22;1458;49.728;9.228;2023-01-15T03:33:59;10.00;99.90
2897;DHT22;1458;49.728;9.228;2023-01-15T03:36:27;9.90;99.90
2897;DHT22;1458;49.728;9.228;2023-01-15T03:38:59;9.80;99.90
2897;DHT22;1458;49.728;9.228;2023-01-15T03:41:51;9.70;99.90
2897;DHT22;1458;49.728;9.228;2023-01-15T03:44:32;9.60;99.90
2897;DHT22;1458;49.728;9.228;2023-01-15T03:47:16;9.50;99.90
2897;DHT22;1458;49.728;9.228;2023-01-15T03:49:56;9.40;99.90
2897;DHT22;1458;49.728;9.228;2023-01-15T03:52:42;9.40;99.90
2897;DHT22;1458;49.728;9.228;2023-01-15T03:55:15;9.30;99.90
2897;DHT22;1458;49.728;9.228;2023-01-15T03:57:57;9.30;99.90
2897;DHT22;1458;49.728;9.228;2023-01-15T04:00:34;9.30;99.90
2897;DHT22;1458;49.728;9.228;2023-01-15T04:03:06;9.20;99.90
2897;DHT22;1458;49.728;9.228;2023-01-15T04:05:36;9.20;99.90
2897;DHT22;1458;49.728;9.228;2023-01-15T04:08:06;9.10;99.90
2897;DHT22;1458;49.728;9.228;2023-01-15T04:10:35;9.20;99.90
2897;DHT22;1458;49.728;9.228;2023-01-15T04:13:05;9.20;99.90
2897;DHT22;1458;49.728;9.228;2023-01-15T04:15:34;9.10;99.90
2897;DHT22;1458;49.728;9.228;2023-01-15T04:18:01;9.10;99.90
2897;DHT22;1458;49.728;9.228;2023-01-15T04:20:29;9.20;99.90
2897;DHT22;1458;49.728;9.228;2023-01-15T04:22:57;9.10;99.90
2897;DHT22;1458;49.728;9.228;2023-01-15T04:25:24;9.10;99.90
2897;DHT22;1458;49.728;9.228;2023-01-15T04:27:52;9.00;99.90
2897;DHT22;1458;49.728;9.228;2023-01-15T04:30:20;9.10;99.90
2897;DHT22;1458;49.728;9.228;2023-01-15T04:32:49;8.90;99.90
2897;DHT22;1458;49.728;9.228;2023-01-15T04:35:18;8.70;99.90
2897;DHT22;1458;49.728;9.228;2023-01-15T04:37:45;8.60;99.90
2897;DHT22;1458;49.728;9.228;2023-01-15T04:40:13;8.50;99.90
2897;DHT22;1458;49.728;9.228;2023-01-15T04:43:01;8.40;99.90
2897;DHT22;1458;49.728;9.228;2023-01-15T04:45:46;8.20;99.90
2897;DHT22;1458;49.728;9.228;2023-01-15T04:48:14;8.10;99.90
2897;DHT22;1458;49.728;9.228;2023-01-15T04:50:42;8.10;99.90
2897;DHT22;1458;49.728;9.228;2023-01-15T04:53:09;8.10;99.90
2897;DHT22;1458;49.728;9.228;2023-01-15T04:55:36;8.10;99.90
2897;DHT22;1458;49.728;9.228;2023-01-15T04:58:04;8.00;99.90
2897;DHT22;1458;49.728;9.228;2023-01-15T05:00:31;8.00;99.90
2897;DHT22;1458;49.728;9.228;2023-01-15T05:02:58;8.00;99.90
2897;DHT22;1458;49.728;9.228;2023-01-15T05:05:27;8.00;99.90
2897;DHT22;1458;49.728;9.228;2023-01-15T05:07:57;8.10;99.90
2897;DHT22;1458;49.728;9.228;2023-01-15T05:10:24;8.10;99.90
2897;DHT22;1458;49.728;9.228;2023-01-15T05:12:52;8.10;99.90
2897;DHT22;1458;49.728;9.228;2023-01-15T05:15:19;8.00;99.90
2897;DHT22;1458;49.728;9.228;2023-01-15T05:17:46;8.00;99.90
2897;DHT22;1458;49.728;9.228;2023-01-15T05:20:14;8.00;99.90
2897;DHT22;1458;49.728;9.228;2023-01-15T05:22:42;8.10;99.90
2897;DHT22;1458;49.728;9.228;2023-01-15T05:25:10;8.00;99.90
2897;DHT22;1458;49.728;9.228;2023-01-15T05:27:37;8.10;99.90
2897;DHT22;1458;49.728;9.228;2023-01-15T05:30:07;8.00;99.90
2897;DHT22;1458;49.728;9.228;2023-01-15T05:32:35;7.90;99.90
2897;DHT22;1458;49.728;9.228;2023-01-15T05:35:02;8.00;99.90
2897;DHT22;1458;49.728;9.228;2023-01-15T05:37:30;7.90;99.90
2897;DHT22;1458;49.728;9.228;2023-01-15T05:39:58;7.90;99.90
2897;DHT22;1458;49.728;9.228;2023-01-15T05:42:26;7.90;99.90
2897;DHT22;1458;49.728;9.228;2023-01-15T05:44:53;7.80;99.90
2897;DHT22;1458;49.728;9.228;2023-01-15T05:47:20;7.90;99.90
2897;DHT22;1458;49.728;9.228;2023-01-15T05:49:48;7.90;99.90
2897;DHT22;1458;49.728;9.228;2023-01-15T05:52:15;7.60;99.90
2897;DHT22;1458;49.728;9.228;2023-01-15T05:54:42;7.40;99.90
2897;DHT22;1458;49.728;9.228;2023-01-15T05:57:11;7.30;99.90
2897;DHT22;1458;49.728;9.228;2023-01-15T05:59:39;7.10;99.90
2897;DHT22;1458;49.728;9.228;2023-01-15T06:02:07;6.90;99.90
2897;DHT22;1458;49.728;9.228;2023-01-15T06:04:34;6.70;99.90
2897;DHT22;1458;49.728;9.228;2023-01-15T06:07:01;6.50;99.90
2897;DHT22;1458;49.728;9.228;2023-01-15T06:09:29;6.40;99.90
2897;DHT22;1458;49.728;9.228;2023-01-15T06:11:57;6.30;99.90
2897;DHT22;1458;49.728;9.228;2023-01-15T06:14:26;6.20;99.90
2897;DHT22;1458;49.728;9.228;2023-01-15T06:16:53;6.10;99.90
2897;DHT22;1458;49.728;9.228;2023-01-15T06:19:20;6.10;99.90
2897;DHT22;1458;49.728;9.228;2023-01-15T06:21:48;6.00;99.90
2897;DHT22;1458;49.728;9.228;2023-01-15T06:24:15;6.00;99.90
2897;DHT22;1458;49.728;9.228;2023-01-15T06:26:44;6.00;99.90
2897;DHT22;1458;49.728;9.228;2023-01-15T06:29:12;5.90;99.90
2897;DHT22;1458;49.728;9.228;2023-01-15T06:31:44;5.90;99.90
2897;DHT22;1458;49.728;9.228;2023-01-15T06:34:12;5.80;99.90
2897;DHT22;1458;49.728;9.228;2023-01-15T06:36:40;5.80;99.90
2897;DHT22;1458;49.728;9.228;2023-01-15T06:39:07;5.80;99.90
2897;DHT22;1458;49.728;9.228;2023-01-15T06:41:34;5.90;99.90
2897;DHT22;1458;49.728;9.228;2023-01-15T06:44:19;5.80;99.90
2897;DHT22;1458;49.728;9.228;2023-01-15T06:47:12;5.90;99.90
2897;DHT22;1458;49.728;9.228;2023-01-15T06:49:46;5.90;99.90
2897;DHT22;1458;49.728;9.228;2023-01-15T06:52:14;5.90;99.90
2897;DHT22;1458;49.728;9.228;2023-01-15T06:54:41;5.70;99.90
2897;DHT22;1458;49.728;9.228;2023-01-15T06:57:09;5.80;99.90
2897;DHT22;1458;49.728;9.228;2023-01-15T06:59:36;5.70;99.90
2897;DHT22;1458;49.728;9.228;2023-01-15T07:02:03;5.70;99.90
2897;DHT22;1458;49.728;9.228;2023-01-15T07:04:32;5.80;99.90
2897;DHT22;1458;49.728;9.228;2023-01-15T07:06:59;5.90;99.90
2897;DHT22;1458;49.728;9.228;2023-01-15T07:09:27;5.90;99.90
2897;DHT22;1458;49.728;9.228;2023-01-15T07:11:54;5.90;99.90
2897;DHT22;1458;49.728;9.228;2023-01-15T07:14:23;6.00;99.90
2897;DHT22;1458;49.728;9.228;2023-01-15T07:16:53;6.00;99.90
2897;DHT22;1458;49.728;9.228;2023-01-15T07:19:20;6.10;99.90
2897;DHT22;1458;49.728;9.228;2023-01-15T07:21:49;6.10;99.90
2897;DHT22;1458;49.728;9.228;2023-01-15T07:24:16;6.00;99.90
2897;DHT22;1458;49.728;9.228;2023-01-15T07:26:44;5.90;99.90
2897;DHT22;1458;49.728;9.228;2023-01-15T07:29:12;6.00;99.90
2897;DHT22;1458;49.728;9.228;2023-01-15T07:31:40;5.80;99.90
2897;DHT22;1458;49.728;9.228;2023-01-15T07:34:08;5.90;99.90
2897;DHT22;1458;49.728;9.228;2023-01-15T07:36:35;5.80;99.90
2897;DHT22;1458;49.728;9.228;2023-01-15T07:39:05;5.90;99.90
2897;DHT22;1458;49.728;9.228;2023-01-15T07:41:32;6.10;99.90
2897;DHT22;1458;49.728;9.228;2023-01-15T07:44:19;6.20;99.90
2897;DHT22;1458;49.728;9.228;2023-01-15T07:47:12;6.30;99.90
2897;DHT22;1458;49.728;9.228;2023-01-15T07:50:01;6.20;99.90
2897;DHT22;1458;49.728;9.228;2023-01-15T07:52:28;6.00;99.90
2897;DHT22;1458;49.728;9.228;2023-01-15T07:54:57;5.90;99.90
2897;DHT22;1458;49.728;9.228;2023-01-15T07:57:25;5.90;99.90
2897;DHT22;1458;49.728;9.228;2023-01-15T07:59:53;6.00;99.90
2897;DHT22;1458;49.728;9.228;2023-01-15T08:02:20;6.10;99.90
2897;DHT22;1458;49.728;9.228;2023-01-15T08:04:47;6.10;99.90
2897;DHT22;1458;49.728;9.228;2023-01-15T08:07:15;6.20;99.90
2897;DHT22;1458;49.728;9.228;2023-01-15T08:09:42;6.20;99.90
2897;DHT22;1458;49.728;9.228;2023-01-15T08:12:11;6.10;99.90
2897;DHT22;1458;49.728;9.228;2023-01-15T08:14:56;6.30;99.90
2897;DHT22;1458;49.728;9.228;2023-01-15T08:17:39;6.10;99.90
2897;DHT22;1458;49.728;9.228;2023-01-15T08:20:10;6.00;99.90
2897;DHT22;1458;49.728;9.228;2023-01-15T08:22:39;6.20;99.90
2897;DHT22;1458;49.728;9.228;2023-01-15T08:25:08;6.10;99.90
2897;DHT22;1458;49.728;9.228;2023-01-15T08:27:38;6.10;99.90
2897;DHT22;1458;49.728;9.228;2023-01-15T08:30:10;6.20;99.90
2897;DHT22;1458;49.728;9.228;2023-01-15T08:32:39;6.20;99.90
2897;DHT22;1458;49.728;9.228;2023-01-15T08:35:07;6.20;99.90
2897;DHT22;1458;49.728;9.228;2023-01-15T08:37:34;6.20;99.90
2897;DHT22;1458;49.728;9.228;2023-01-15T08:40:02;6.30;99.90
2897;DHT22;1458;49.728;9.228;2023-01-15T08:42:30;6.10;99.90
2897;DHT22;1458;49.728;9.228;2023-01-15T08:44:58;6.00;99.90
2897;DHT22;1458;49.728;9.228;2023-01-15T08:47:26;6.10;99.90
2897;DHT22;1458;49.728;9.228;2023-01-15T08:49:53;6.10;99.90
2897;DHT22;1458;49.728;9.228;2023-01-15T08:52:20;6.10;99.90
2897;DHT22;1458;49.728;9.228;2023-01-15T08:54:48;6.30;99.90
2897;DHT22;1458;49.728;9.228;2023-01-15T08:57:15;6.20;99.90
2897;DHT22;1458;49.728;9.228;2023-01-15T08:59:42;6.10;99.90
2897;DHT22;1458;49.728;9.228;2023-01-15T09:02:13;6.10;99.90
2897;DHT22;1458;49.728;9.228;2023-01-15T09:04:42;6.10;99.90
2897;DHT22;1458;49.728;9.228;2023-01-15T09:07:09;6.10;99.90
2897;DHT22;1458;49.728;9.228;2023-01-15T09:09:37;6.20;99.90
2897;DHT22;1458;49.728;9.228;2023-01-15T09:12:05;6.20;99.90
2897;DHT22;1458;49.728;9.228;2023-01-15T09:14:33;6.20;99.90
2897;DHT22;1458;49.728;9.228;2023-01-15T09:17:01;6.30;99.90
2897;DHT22;1458;49.728;9.228;2023-01-15T09:19:30;6.30;99.90
2897;DHT22;1458;49.728;9.228;2023-01-15T09:21:57;6.40;99.90
2897;DHT22;1458;49.728;9.228;2023-01-15T09:24:24;6.40;99.90
2897;DHT22;1458;49.728;9.228;2023-01-15T09:26:52;6.40;99.90
2897;DHT22;1458;49.728;9.228;2023-01-15T09:29:19;6.50;99.90
2897;DHT22;1458;49.728;9.228;2023-01-15T09:31:46;6.40;99.90
2897;DHT22;1458;49.728;9.228;2023-01-15T09:34:14;6.40;99.90
2897;DHT22;1458;49.728;9.228;2023-01-15T09:36:45;6.50;99.90
2897;DHT22;1458;49.728;9.228;2023-01-15T09:39:13;6.50;99.90
2897;DHT22;1458;49.728;9.228;2023-01-15T09:41:55;6.50;99.90
2897;DHT22;1458;49.728;9.228;2023-01-15T09:44:45;6.50;99.90
2897;DHT22;1458;49.728;9.228;2023-01-15T09:47:34;6.40;99.90
2897;DHT22;1458;49.728;9.228;2023-01-15T09:50:19;6.40;99.90
2897;DHT22;1458;49.728;9.228;2023-01-15T09:53:20;6.30;99.90
2897;DHT22;1458;49.728;9.228;2023-01-15T09:55:56;6.40;99.90
2897;DHT22;1458;49.728;9.228;2023-01-15T09:58:31;6.40;99.90
2897;DHT22;1458;49.728;9.228;2023-01-15T10:00:59;6.40;99.90
2897;DHT22;1458;49.728;9.228;2023-01-15T10:03:31;6.40;99.90
2897;DHT22;1458;49.728;9.228;2023-01-15T10:06:11;6.50;99.90
2897;DHT22;1458;49.728;9.228;2023-01-15T10:08:44;6.50;99.90
2897;DHT22;1458;49.728;9.228;2023-01-15T10:11:27;6.40;99.90
2897;DHT22;1458;49.728;9.228;2023-01-15T10:14:17;6.30;99.90
2897;DHT22;1458;49.728;9.228;2023-01-15T10:16:54;6.40;99.90
2897;DHT22;1458;49.728;9.228;2023-01-15T10:19:21;6.40;99.90
2897;DHT22;1458;49.728;9.228;2023-01-15T10:21:54;6.40;99.90
2897;DHT22;1458;49.728;9.228;2023-01-15T10:24:29;6.40;99.90
2897;DHT22;1458;49.728;9.228;2023-01-15T10:27:01;6.50;99.90
2897;DHT22;1458;49.728;9.228;2023-01-15T10:29:42;6.50;99.90
2897;DHT22;1458;49.728;9.228;2023-01-15T10:32:22;6.40;99.90
2897;DHT22;1458;49.728;9.228;2023-01-15T10:35:20;6.30;99.90
2897;DHT22;1458;49.728;9.228;2023-01-15T10:37:55;6.30;99.90
2897;DHT22;1458;49.728;9.228;2023-01-15T10:40:37;6.30;99.90
2897;DHT22;1458;49.728;9.228;2023-01-15T10:43:16;6.20;99.90
2897;DHT22;1458;49.728;9.228;2023-01-15T10:45:49;6.10;99.90
2897;DHT22;1458;49.728;9.228;2023-01-15T10:48:25;6.00;99.90
2897;DHT22;1458;49.728;9.228;2023-01-15T10:50:57;6.10;99.90
2897;DHT22;1458;49.728;9.228;2023-01-15T10:53:31;6.00;99.90
2897;DHT22;1458;49.728;9.228;2023-01-15T10:56:08;6.10;99.90
2897;DHT22;1458;49.728;9.228;2023-01-15T10:58:44;6.10;99.90
2897;DHT22;1458;49.728;9.228;2023-01-15T11:01:16;6.10;99.90
2897;DHT22;1458;49.728;9.228;2023-01-15T11:03:44;6.10;99.90
2897;DHT22;1458;49.728;9.228;2023-01-15T11:06:13;6.20;99.90
2897;DHT22;1458;49.728;9.228;2023-01-15T11:08:44;6.20;99.90
2897;DHT22;1458;49.728;9.228;2023-01-15T11:11:19;6.30;99.90
2897;DHT22;1458;49.728;9.228;2023-01-15T11:14:09;6.30;99.90
2897;DHT22;1458;49.728;9.228;2023-01-15T11:16:54;6.40;99.90
2897;DHT22;1458;49.728;9.228;2023-01-15T11:19:42;6.50;99.90
2897;DHT22;1458;49.728;9.228;2023-01-15T11:22:12;6.50;99.90
2897;DHT22;1458;49.728;9.228;2023-01-15T11:24:49;6.30;99.90
2897;DHT22;1458;49.728;9.228;2023-01-15T11:27:21;6.20;99.90
2897;DHT22;1458;49.728;9.228;2023-01-15T11:29:53;6.20;99.90
2897;DHT22;1458;49.728;9.228;2023-01-15T11:32:27;6.30;99.90
2897;DHT22;1458;49.728;9.228;2023-01-15T11:34:56;6.20;99.90
2897;DHT22;1458;49.728;9.228;2023-01-15T11:37:25;6.10;99.90
2897;DHT22;1458;49.728;9.228;2023-01-15T11:39:57;6.00;99.90
2897;DHT22;1458;49.728;9.228;2023-01-15T11:42:32;6.10;99.90
2897;DHT22;1458;49.728;9.228;2023-01-15T11:45:19;6.10;99.90
2897;DHT22;1458;49.728;9.228;2023-01-15T11:48:13;6.20;99.90
2897;DHT22;1458;49.728;9.228;2023-01-15T11:51:03;6.30;99.90
2897;DHT22;1458;49.728;9.228;2023-01-15T11:53:38;6.40;99.90
2897;DHT22;1458;49.728;9.228;2023-01-15T11:56:09;6.20;99.90
2897;DHT22;1458;49.728;9.228;2023-01-15T11:58:44;6.20;99.90
2897;DHT22;1458;49.728;9.228;2023-01-15T12:01:16;6.10;99.90
2897;DHT22;1458;49.728;9.228;2023-01-15T12:03:48;6.00;99.90
2897;DHT22;1458;49.728;9.228;2023-01-15T12:06:18;5.90;99.90
2897;DHT22;1458;49.728;9.228;2023-01-15T12:08:49;5.80;99.90
2897;DHT22;1458;49.728;9.228;2023-01-15T12:11:38;5.80;99.90
2897;DHT22;1458;49.728;9.228;2023-01-15T12:14:55;5.70;99.90
2897;DHT22;1458;49.728;9.228;2023-01-15T12:17:52;5.60;99.90
2897;DHT22;1458;49.728;9.228;2023-01-15T12:20:26;5.60;99.90
2897;DHT22;1458;49.728;9.228;2023-01-15T12:23:27;5.70;99.90
2897;DHT22;1458;49.728;9.228;2023-01-15T12:26:24;5.60;99.90
2897;DHT22;1458;49.728;9.228;2023-01-15T12:29:00;5.60;99.90
2897;DHT22;1458;49.728;9.228;2023-01-15T12:31:36;5.60;99.90
2897;DHT22;1458;49.728;9.228;2023-01-15T12:34:12;5.60;99.90
2897;DHT22;1458;49.728;9.228;2023-01-15T12:36:46;5.60;99.90
2897;DHT22;1458;49.728;9.228;2023-01-15T12:39:20;5.60;99.90
2897;DHT22;1458;49.728;9.228;2023-01-15T12:41:53;5.70;99.90
2897;DHT22;1458;49.728;9.228;2023-01-15T12:44:44;5.80;99.90
2897;DHT22;1458;49.728;9.228;2023-01-15T12:47:37;5.90;99.90
2897;DHT22;1458;49.728;9.228;2023-01-15T12:50:23;5.90;99.90
2897;DHT22;1458;49.728;9.228;2023-01-15T12:53:00;6.00;99.90
2897;DHT22;1458;49.728;9.228;2023-01-15T12:55:35;5.80;99.90
2897;DHT22;1458;49.728;9.228;2023-01-15T12:58:12;5.70;99.90
2897;DHT22;1458;49.728;9.228;2023-01-15T13:00:48;5.60;99.90
2897;DHT22;1458;49.728;9.228;2023-01-15T13:03:23;5.50;99.90
2897;DHT22;1458;49.728;9.228;2023-01-15T13:05:57;5.50;99.90
2897;DHT22;1458;49.728;9.228;2023-01-15T13:08:29;5.80;99.90
2897;DHT22;1458;49.728;9.228;2023-01-15T13:11:00;5.80;99.90
2897;DHT22;1458;49.728;9.228;2023-01-15T13:13:29;5.70;99.90
2897;DHT22;1458;49.728;9.228;2023-01-15T13:16:12;5.60;99.90
2897;DHT22;1458;49.728;9.228;2023-01-15T13:18:54;5.70;99.90
2897;DHT22;1458;49.728;9.228;2023-01-15T13:21:34;5.70;99.90
2897;DHT22;1458;49.728;9.228;2023-01-15T13:24:18;5.70;99.90
2897;DHT22;1458;49.728;9.228;2023-01-15T13:27:12;5.70;99.90
2897;DHT22;1458;49.728;9.228;2023-01-15T13:29:53;5.70;99.90
2897;DHT22;1458;49.728;9.228;2023-01-15T13:32:32;5.70;99.90
2897;DHT22;1458;49.728;9.228;2023-01-15T13:35:05;5.70;99.90
2897;DHT22;1458;49.728;9.228;2023-01-15T13:37:39;5.60;99.90
2897;DHT22;1458;49.728;9.228;2023-01-15T13:40:12;5.60;99.90
2897;DHT22;1458;49.728;9.228;2023-01-15T13:42:45;5.60;99.90
2897;DHT22;1458;49.728;9.228;2023-01-15T13:45:31;5.70;99.90
2897;DHT22;1458;49.728;9.228;2023-01-15T13:48:14;5.70;99.90
2897;DHT22;1458;49.728;9.228;2023-01-15T13:50:53;5.80;99.90
2897;DHT22;1458;49.728;9.228;2023-01-15T13:53:26;5.80;99.90
2897;DHT22;1458;49.728;9.228;2023-01-15T13:55:56;5.80;99.90
2897;DHT22;1458;49.728;9.228;2023-01-15T13:58:31;5.90;99.90
2897;DHT22;1458;49.728;9.228;2023-01-15T14:01:02;5.90;99.90
2897;DHT22;1458;49.728;9.228;2023-01-15T14:03:32;6.00;99.90
2897;DHT22;1458;49.728;9.228;2023-01-15T14:06:05;6.00;99.90
2897;DHT22;1458;49.728;9.228;2023-01-15T14:08:39;6.10;99.90
2897;DHT22;1458;49.728;9.228;2023-01-15T14:11:35;5.90;99.90
2897;DHT22;1458;49.728;9.228;2023-01-15T14:14:33;5.90;99.90
2897;DHT22;1458;49.728;9.228;2023-01-15T14:20:35;5.90;99.90
2897;DHT22;1458;49.728;9.228;2023-01-15T14:23:23;6.00;99.90
2897;DHT22;1458;49.728;9.228;2023-01-15T14:26:07;6.10;99.90
2897;DHT22;1458;49.728;9.228;2023-01-15T14:28:49;6.00;99.90
2897;DHT22;1458;49.728;9.228;2023-01-15T14:31:41;5.90;99.90
2897;DHT22;1458;49.728;9.228;2023-01-15T14:34:15;5.90;99.90
2897;DHT22;1458;49.728;9.228;2023-01-15T14:36:53;5.90;99.90
2897;DHT22;1458;49.728;9.228;2023-01-15T14:39:32;5.90;99.90
2897;DHT22;1458;49.728;9.228;2023-01-15T14:42:06;5.90;99.90
2897;DHT22;1458;49.728;9.228;2023-01-15T14:44:58;6.10;99.90
2897;DHT22;1458;49.728;9.228;2023-01-15T14:47:30;6.40;99.90
2897;DHT22;1458;49.728;9.228;2023-01-15T14:50:23;6.40;99.90
2897;DHT22;1458;49.728;9.228;2023-01-15T14:53:01;6.20;99.90
2897;DHT22;1458;49.728;9.228;2023-01-15T14:55:46;6.00;99.90
2897;DHT22;1458;49.728;9.228;2023-01-15T14:58:24;6.00;99.90
2897;DHT22;1458;49.728;9.228;2023-01-15T15:01:00;5.90;99.90
2897;DHT22;1458;49.728;9.228;2023-01-15T15:03:33;5.90;99.90
2897;DHT22;1458;49.728;9.228;2023-01-15T15:06:04;5.90;99.90
2897;DHT22;1458;49.728;9.228;2023-01-15T15:08:33;5.80;99.90
2897;DHT22;1458;49.728;9.228;2023-01-15T15:11:04;5.70;99.90
2897;DHT22;1458;49.728;9.228;2023-01-15T15:13:55;5.70;99.90
2897;DHT22;1458;49.728;9.228;2023-01-15T15:16:26;5.80;99.90
2897;DHT22;1458;49.728;9.228;2023-01-15T15:18:57;5.70;99.90
2897;DHT22;1458;49.728;9.228;2023-01-15T15:21:30;5.60;99.90
2897;DHT22;1458;49.728;9.228;2023-01-15T15:24:03;5.60;99.90
2897;DHT22;1458;49.728;9.228;2023-01-15T15:26:36;5.70;99.90
2897;DHT22;1458;49.728;9.228;2023-01-15T15:29:09;5.80;99.90
2897;DHT22;1458;49.728;9.228;2023-01-15T15:31:39;5.80;99.90
2897;DHT22;1458;49.728;9.228;2023-01-15T15:34:16;5.70;99.90
2897;DHT22;1458;49.728;9.228;2023-01-15T15:36:49;5.70;99.90
2897;DHT22;1458;49.728;9.228;2023-01-15T15:39:22;5.60;99.90
2897;DHT22;1458;49.728;9.228;2023-01-15T15:41:57;5.60;99.90
2897;DHT22;1458;49.728;9.228;2023-01-15T15:44:48;5.40;99.90
2897;DHT22;1458;49.728;9.228;2023-01-15T15:47:36;5.40;99.90
2897;DHT22;1458;49.728;9.228;2023-01-15T15:50:24;5.50;99.90
2897;DHT22;1458;49.728;9.228;2023-01-15T15:52:54;5.60;99.90
2897;DHT22;1458;49.728;9.228;2023-01-15T15:55:24;5.80;99.90
2897;DHT22;1458;49.728;9.228;2023-01-15T15:57:56;5.80;99.90
2897;DHT22;1458;49.728;9.228;2023-01-15T16:00:30;5.80;99.90
2897;DHT22;1458;49.728;9.228;2023-01-15T16:03:03;5.90;99.90
2897;DHT22;1458;49.728;9.228;2023-01-15T16:05:32;5.90;99.90
2897;DHT22;1458;49.728;9.228;2023-01-15T16:08:17;5.90;99.90
2897;DHT22;1458;49.728;9.228;2023-01-15T16:10:48;5.90;99.90
2897;DHT22;1458;49.728;9.228;2023-01-15T16:13:22;5.90;99.90
2897;DHT22;1458;49.728;9.228;2023-01-15T16:15:52;5.90;99.90
2897;DHT22;1458;49.728;9.228;2023-01-15T16:18:46;5.70;99.90
2897;DHT22;1458;49.728;9.228;2023-01-15T16:21:16;5.70;99.90
2897;DHT22;1458;49.728;9.228;2023-01-15T16:23:55;5.70;99.90
2897;DHT22;1458;49.728;9.228;2023-01-15T16:26:29;5.80;99.90
2897;DHT22;1458;49.728;9.228;2023-01-15T16:29:02;5.80;99.90
2897;DHT22;1458;49.728;9.228;2023-01-15T16:31:33;5.50;99.90
2897;DHT22;1458;49.728;9.228;2023-01-15T16:34:03;5.50;99.90
2897;DHT22;1458;49.728;9.228;2023-01-15T16:36:38;5.60;99.90
2897;DHT22;1458;49.728;9.228;2023-01-15T16:39:17;5.40;99.90
2897;DHT22;1458;49.728;9.228;2023-01-15T16:41:47;5.50;99.90
2897;DHT22;1458;49.728;9.228;2023-01-15T16:44:25;5.50;99.90
2897;DHT22;1458;49.728;9.228;2023-01-15T16:46:59;5.70;99.90
2897;DHT22;1458;49.728;9.228;2023-01-15T16:49:28;5.60;99.90
2897;DHT22;1458;49.728;9.228;2023-01-15T16:51:58;5.50;99.90
2897;DHT22;1458;49.728;9.228;2023-01-15T16:54:48;5.40;99.90
2897;DHT22;1458;49.728;9.228;2023-01-15T16:57:30;5.30;99.90
2897;DHT22;1458;49.728;9.228;2023-01-15T17:00:06;5.20;99.90